Terminal Aerodrome Forecast
Issued by NWS Duluth, MN

Home | Current Version | Previous Version | Text Only | Print | Product List | Glossary On
Versions: 1 2 3 4 5 6 7 8 9 10 11 12 13 14 15 16 17
000
FTUS43 KDLH 020526
TAFINL
TAF
KINL 020526Z 0206/0306 VRB03KT P6SM SCT060 BKN150
     FM021400 25006KT P6SM VCSH SCT050 BKN250
     FM021800 24009KT P6SM SCT050 BKN250
     FM030200 24006KT P6SM SCT040 BKN250=

USA.gov is the U.S. government's official web portal to all federal, state and local government web resources and services.